createdAt,value
2022-08-23T00:02:29.733Z,15.54
2022-08-23T00:07:29.893Z,15.46
2022-08-23T00:12:30.489Z,15.54
2022-08-23T00:17:34.472Z,15.51
2022-08-23T00:22:29.591Z,15.38
2022-08-23T00:27:30.720Z,15.20
2022-08-23T00:32:32.872Z,15.23
2022-08-23T00:37:31.946Z,15.08
2022-08-23T00:42:33.110Z,15.05
2022-08-23T00:47:34.214Z,15.08
2022-08-23T00:52:36.315Z,15.05
2022-08-23T00:57:36.658Z,15.02
2022-08-23T01:02:35.828Z,15.06
2022-08-23T01:07:37.942Z,14.99
2022-08-23T01:12:38.083Z,14.99
2022-08-23T01:17:38.175Z,14.80
2022-08-23T01:22:39.319Z,14.71
2022-08-23T01:27:39.423Z,14.57
2022-08-23T01:32:38.514Z,14.62
2022-08-23T01:37:39.722Z,14.69
2022-08-23T01:44:00.790Z,14.68
2022-08-23T01:47:42.951Z,14.54
2022-08-23T01:52:46.877Z,14.57
2022-08-23T01:57:42.024Z,14.54
2022-08-23T02:02:43.926Z,14.53
2022-08-23T02:07:43.118Z,14.50
2022-08-23T02:12:45.246Z,14.35
2022-08-23T02:17:45.396Z,14.19
2022-08-23T02:22:44.484Z,14.12
2022-08-23T02:27:45.588Z,14.12
2022-08-23T02:32:46.706Z,14.14
2022-08-23T02:37:47.311Z,14.09
2022-08-23T02:42:49.518Z,13.98
2022-08-23T02:47:49.660Z,13.99
2022-08-23T02:52:48.780Z,14.07
2022-08-23T02:57:49.953Z,13.95
2022-08-23T03:02:52.391Z,13.96
2022-08-23T03:07:51.530Z,13.91
2022-08-23T03:12:53.729Z,13.83
2022-08-23T03:17:53.883Z,13.87
2022-08-23T03:22:54.885Z,13.79
2022-08-23T03:27:54.196Z,13.70
2022-08-23T03:32:56.297Z,13.65
2022-08-23T03:37:56.575Z,13.67
2022-08-23T03:42:55.695Z,13.81
2022-08-23T03:47:57.879Z,13.73
2022-08-23T03:52:57.032Z,13.62
2022-08-23T03:57:58.191Z,13.46
2022-08-23T04:02:59.397Z,13.37
2022-08-23T04:08:02.694Z,13.46
2022-08-23T04:13:02.823Z,13.38
2022-08-23T04:18:03.030Z,13.37
2022-08-23T04:23:02.149Z,13.33
2022-08-23T04:28:03.642Z,13.27
2022-08-23T04:33:03.985Z,13.25
2022-08-23T04:38:18.258Z,13.27
2022-08-23T04:43:05.215Z,13.38
2022-08-23T04:48:06.317Z,13.51
2022-08-23T04:53:06.242Z,13.47
2022-08-23T04:58:07.431Z,13.56
2022-08-23T05:03:08.540Z,13.47
2022-08-23T05:08:09.709Z,13.43
2022-08-23T05:13:10.864Z,13.49
2022-08-23T05:18:11.935Z,13.59
2022-08-23T05:23:13.025Z,13.92
2022-08-23T05:28:14.126Z,14.16
2022-08-23T05:33:13.961Z,14.50
2022-08-23T05:38:20.548Z,14.75
2022-08-23T05:43:15.912Z,14.98
2022-08-23T05:48:18.363Z,15.26
2022-08-23T05:53:18.565Z,15.63
2022-08-23T05:58:18.700Z,16.01
2022-08-23T06:03:17.953Z,16.63
2022-08-23T06:08:19.045Z,16.96
2022-08-23T06:13:21.195Z,17.35
2022-08-23T06:18:21.389Z,17.57
2022-08-23T06:23:20.497Z,17.85
2022-08-23T06:28:25.641Z,18.00
2022-08-23T06:33:25.005Z,18.34
2022-08-23T06:38:24.091Z,18.47
2022-08-23T06:43:26.196Z,18.90
2022-08-23T06:48:26.308Z,19.15
2022-08-23T06:53:25.454Z,19.46
2022-08-23T06:58:25.947Z,19.87
2022-08-23T07:03:28.066Z,20.25
2022-08-23T07:08:27.183Z,20.42
2022-08-23T07:13:28.390Z,20.53
2022-08-23T07:18:29.759Z,20.89
2022-08-23T07:23:30.914Z,20.91
2022-08-23T07:28:33.048Z,20.61
2022-08-23T07:33:32.280Z,21.19
2022-08-23T07:38:32.295Z,21.36
2022-08-23T07:43:34.341Z,21.82
2022-08-23T07:48:53.111Z,22.17
2022-08-23T07:53:37.653Z,22.22
2022-08-23T07:58:35.408Z,22.12
2022-08-23T08:03:36.653Z,21.29
2022-08-23T08:08:38.807Z,21.46
2022-08-23T08:13:38.927Z,21.20
2022-08-23T08:18:38.037Z,21.51
2022-08-23T08:23:39.225Z,21.72
2022-08-23T08:28:40.475Z,21.36
2022-08-23T08:33:41.619Z,21.57
2022-08-23T08:38:50.334Z,22.07
2022-08-23T08:43:42.713Z,21.69
2022-08-23T08:48:43.856Z,21.85
2022-08-23T08:53:45.972Z,22.32
2022-08-23T08:58:46.131Z,22.25
2022-08-23T09:03:46.371Z,22.86
2022-08-23T09:08:45.232Z,22.49
2022-08-23T09:13:46.587Z,22.65
2022-08-23T09:18:47.730Z,22.87
2022-08-23T09:23:48.945Z,23.23
2022-08-23T09:28:48.898Z,23.53
2022-08-23T09:33:51.049Z,23.50
2022-08-23T09:38:49.179Z,24.12
2022-08-23T09:43:50.358Z,23.79
2022-08-23T09:48:50.507Z,23.42
2022-08-23T09:53:52.666Z,23.97
2022-08-23T09:58:51.796Z,23.61
2022-08-23T10:03:52.916Z,23.94
2022-08-23T10:08:55.074Z,24.16
2022-08-23T10:13:53.248Z,24.27
2022-08-23T10:18:54.834Z,24.41
2022-08-23T10:23:57.953Z,25.09
2022-08-23T10:28:57.098Z,24.92
2022-08-23T10:33:59.213Z,24.77
2022-08-23T10:39:00.357Z,24.76
2022-08-23T10:43:59.476Z,24.79
2022-08-23T10:49:00.561Z,25.01
2022-08-23T10:54:02.689Z,24.73
2022-08-23T10:59:02.884Z,24.80
2022-08-23T11:04:02.991Z,25.35
2022-08-23T11:09:02.153Z,25.19
2022-08-23T11:14:04.278Z,24.85
2022-08-23T11:19:03.494Z,25.24
2022-08-23T11:24:04.733Z,25.32
2022-08-23T11:29:06.855Z,25.39
2022-08-23T11:34:06.034Z,25.38
2022-08-23T11:39:07.096Z,25.59
2022-08-23T11:44:09.356Z,26.17
2022-08-23T11:49:08.555Z,25.72
2022-08-23T11:54:09.649Z,25.65
2022-08-23T11:59:12.730Z,25.87
2022-08-23T12:04:11.979Z,25.59
2022-08-23T12:09:15.123Z,26.17
2022-08-23T12:14:15.261Z,26.11
2022-08-23T12:19:15.401Z,26.44
2022-08-23T12:24:15.733Z,26.35
2022-08-23T12:29:16.846Z,26.61
2022-08-23T12:34:17.990Z,26.52
2022-08-23T12:39:18.079Z,26.72
2022-08-23T12:44:19.176Z,26.77
2022-08-23T12:49:20.280Z,26.59
2022-08-23T12:54:22.521Z,26.69
2022-08-23T12:59:21.781Z,26.77
2022-08-23T13:04:23.001Z,26.98
2022-08-23T13:09:25.167Z,27.17
2022-08-23T13:14:25.302Z,26.92
2022-08-23T13:19:24.431Z,26.76
2022-08-23T13:24:31.414Z,26.86
2022-08-23T13:29:27.555Z,27.39
2022-08-23T13:34:26.695Z,27.13
2022-08-23T13:39:27.937Z,27.04
2022-08-23T13:44:29.123Z,27.05
2022-08-23T13:49:31.905Z,26.94
2022-08-23T13:54:31.112Z,26.96
2022-08-23T13:59:32.276Z,26.91
2022-08-23T14:04:34.401Z,26.89
2022-08-23T14:09:34.504Z,26.89
2022-08-23T14:14:33.670Z,26.89
2022-08-23T14:24:35.075Z,26.87
2022-08-23T14:29:36.192Z,26.94
2022-08-23T14:34:39.330Z,27.05
2022-08-23T14:39:38.792Z,27.10
2022-08-23T14:44:42.121Z,26.92
2022-08-23T14:49:43.230Z,27.19
2022-08-23T14:54:42.446Z,27.01
2022-08-23T14:59:44.573Z,27.09
2022-08-23T15:04:43.083Z,26.99
2022-08-23T15:09:45.323Z,26.91
2022-08-23T15:14:44.795Z,27.31
2022-08-23T15:19:43.956Z,27.38
2022-08-23T15:24:45.044Z,27.43
2022-08-23T15:29:47.434Z,27.11
2022-08-23T15:34:47.549Z,27.35
2022-08-23T15:39:46.734Z,27.41
2022-08-23T15:44:47.844Z,27.61
2022-08-23T15:49:49.967Z,27.82
2022-08-23T15:54:50.137Z,27.89
2022-08-23T15:59:51.244Z,27.46
2022-08-23T16:04:51.357Z,27.53
2022-08-23T16:09:50.653Z,27.77
2022-08-23T16:14:51.888Z,27.79
2022-08-23T16:19:53.058Z,27.58
2022-08-23T16:24:53.833Z,27.39
2022-08-23T16:29:55.004Z,27.79
2022-08-23T16:34:56.130Z,27.50
2022-08-23T16:39:57.379Z,27.47
2022-08-23T16:44:58.538Z,27.46
2022-08-23T16:49:59.716Z,27.46
2022-08-23T16:55:01.983Z,27.46
2022-08-23T17:00:02.442Z,27.26
2022-08-23T17:05:01.585Z,27.50
2022-08-23T17:10:02.700Z,27.91
2022-08-23T17:15:04.914Z,27.54
2022-08-23T17:20:04.162Z,27.74
2022-08-23T17:25:03.961Z,27.36
2022-08-23T17:30:05.139Z,27.66
2022-08-23T17:35:04.615Z,27.48
2022-08-23T17:40:05.761Z,26.27
2022-08-23T17:45:07.562Z,26.04
2022-08-23T17:50:07.790Z,25.68
2022-08-23T17:55:08.831Z,25.46
2022-08-23T18:00:07.281Z,25.25
2022-08-23T18:05:09.563Z,24.97
2022-08-23T18:10:09.748Z,24.71
2022-08-23T18:15:08.902Z,24.38
2022-08-23T18:20:11.306Z,24.07
2022-08-23T18:25:10.715Z,23.53
2022-08-23T18:30:12.109Z,22.99
2022-08-23T18:35:12.458Z,22.44
2022-08-23T18:40:13.754Z,22.41
2022-08-23T18:45:15.127Z,22.17
2022-08-23T18:50:17.419Z,22.14
2022-08-23T18:55:16.786Z,21.71
2022-08-23T19:00:19.163Z,21.53
2022-08-23T19:05:18.583Z,21.09
2022-08-23T19:10:20.963Z,20.93
2022-08-23T19:15:21.299Z,20.84
2022-08-23T19:20:24.032Z,20.65
2022-08-23T19:25:22.487Z,20.47
2022-08-23T19:30:23.874Z,20.31
2022-08-23T19:35:24.940Z,19.97
2022-08-23T19:40:24.375Z,19.84
2022-08-23T19:45:24.617Z,19.72
2022-08-23T19:50:24.384Z,19.53
2022-08-23T19:55:24.792Z,19.28
2022-08-23T20:00:25.170Z,19.24
2022-08-23T20:05:25.569Z,18.98
2022-08-23T20:10:24.848Z,18.79
2022-08-23T20:15:26.118Z,18.80
2022-08-23T20:20:28.502Z,18.59
2022-08-23T20:25:29.770Z,18.50
2022-08-23T20:30:30.019Z,18.27
2022-08-23T20:35:29.294Z,18.31
2022-08-23T20:40:31.921Z,18.09
2022-08-23T20:45:32.084Z,18.06
2022-08-23T20:50:31.239Z,18.03
2022-08-23T20:55:33.354Z,17.97
2022-08-23T21:00:33.500Z,17.99
2022-08-23T21:05:32.609Z,17.87
2022-08-23T21:10:34.710Z,17.74
2022-08-23T21:15:35.855Z,17.51
2022-08-23T21:20:34.995Z,17.41
2022-08-23T21:25:38.137Z,17.22
2022-08-23T21:30:39.281Z,17.10
2022-08-23T21:35:38.941Z,17.00
2022-08-23T21:40:39.183Z,16.83
2022-08-23T21:45:41.553Z,16.90
2022-08-23T21:50:38.336Z,16.86
2022-08-23T21:55:40.475Z,16.68
2022-08-23T22:00:40.956Z,16.73
2022-08-23T22:05:40.111Z,16.68
2022-08-23T22:10:41.269Z,16.58
2022-08-23T22:15:40.290Z,16.35
2022-08-23T22:20:41.534Z,16.27
2022-08-23T22:25:42.762Z,16.26
2022-08-23T22:30:43.974Z,16.22
2022-08-23T22:35:48.921Z,16.15
2022-08-23T22:40:47.388Z,16.01
2022-08-23T22:45:46.631Z,15.97
2022-08-23T22:50:48.323Z,15.59
2022-08-23T22:55:48.684Z,15.57
2022-08-23T23:00:47.794Z,15.42
2022-08-23T23:05:49.369Z,15.42
2022-08-23T23:10:48.488Z,15.42
2022-08-23T23:15:50.755Z,15.38
2022-08-23T23:20:49.968Z,15.41
2022-08-23T23:25:51.123Z,15.39
2022-08-23T23:30:52.302Z,15.20
2022-08-23T23:35:53.526Z,15.20
2022-08-23T23:40:56.626Z,15.27
2022-08-23T23:45:55.833Z,15.23
2022-08-23T23:50:57.069Z,15.09
2022-08-23T23:55:58.299Z,14.95
